sensor_id;sensor_type;location;lat;lon;timestamp;P1;durP1;ratioP1;P2;durP2;ratioP2
28343;SDS011;15597;50.914;6.638;2023-07-02T00:00:58;4.30;;;1.48;;
28343;SDS011;15597;50.914;6.638;2023-07-02T00:03:24;5.07;;;1.95;;
28343;SDS011;15597;50.914;6.638;2023-07-02T00:05:50;4.20;;;1.48;;
28343;SDS011;15597;50.914;6.638;2023-07-02T00:08:20;4.82;;;1.77;;
28343;SDS011;15597;50.914;6.638;2023-07-02T00:10:46;4.05;;;1.50;;
28343;SDS011;15597;50.914;6.638;2023-07-02T00:13:12;5.20;;;1.50;;
28343;SDS011;15597;50.914;6.638;2023-07-02T00:15:38;3.90;;;1.30;;
28343;SDS011;15597;50.914;6.638;2023-07-02T00:18:03;4.53;;;1.33;;
28343;SDS011;15597;50.914;6.638;2023-07-02T00:20:29;6.38;;;2.10;;
28343;SDS011;15597;50.914;6.638;2023-07-02T00:22:55;5.50;;;1.45;;
28343;SDS011;15597;50.914;6.638;2023-07-02T00:25:21;5.10;;;1.60;;
28343;SDS011;15597;50.914;6.638;2023-07-02T00:27:47;5.38;;;1.58;;
28343;SDS011;15597;50.914;6.638;2023-07-02T00:30:12;3.90;;;1.40;;
28343;SDS011;15597;50.914;6.638;2023-07-02T00:32:38;3.53;;;1.42;;
28343;SDS011;15597;50.914;6.638;2023-07-02T00:35:04;3.65;;;1.40;;
28343;SDS011;15597;50.914;6.638;2023-07-02T00:37:30;3.58;;;1.50;;
28343;SDS011;15597;50.914;6.638;2023-07-02T00:39:56;5.90;;;1.80;;
28343;SDS011;15597;50.914;6.638;2023-07-02T00:42:22;4.38;;;1.60;;
28343;SDS011;15597;50.914;6.638;2023-07-02T00:44:48;5.10;;;1.60;;
28343;SDS011;15597;50.914;6.638;2023-07-02T00:47:14;4.68;;;1.80;;
28343;SDS011;15597;50.914;6.638;2023-07-02T00:49:41;4.53;;;2.05;;
28343;SDS011;15597;50.914;6.638;2023-07-02T00:52:07;3.40;;;1.60;;
28343;SDS011;15597;50.914;6.638;2023-07-02T00:54:32;4.70;;;2.00;;
28343;SDS011;15597;50.914;6.638;2023-07-02T00:56:59;4.32;;;1.98;;
28343;SDS011;15597;50.914;6.638;2023-07-02T00:59:29;4.45;;;1.80;;
28343;SDS011;15597;50.914;6.638;2023-07-02T01:01:55;7.05;;;1.80;;
28343;SDS011;15597;50.914;6.638;2023-07-02T01:04:22;7.43;;;2.30;;
28343;SDS011;15597;50.914;6.638;2023-07-02T01:06:53;6.43;;;1.88;;
28343;SDS011;15597;50.914;6.638;2023-07-02T01:09:23;5.05;;;1.80;;
28343;SDS011;15597;50.914;6.638;2023-07-02T01:11:59;6.78;;;2.75;;
28343;SDS011;15597;50.914;6.638;2023-07-02T01:14:34;5.50;;;2.45;;
28343;SDS011;15597;50.914;6.638;2023-07-02T01:17:05;5.93;;;2.00;;
28343;SDS011;15597;50.914;6.638;2023-07-02T01:19:47;9.13;;;3.40;;
28343;SDS011;15597;50.914;6.638;2023-07-02T01:22:18;5.78;;;2.55;;
28343;SDS011;15597;50.914;6.638;2023-07-02T01:24:45;7.30;;;3.03;;
28343;SDS011;15597;50.914;6.638;2023-07-02T01:27:14;6.32;;;3.00;;
28343;SDS011;15597;50.914;6.638;2023-07-02T01:29:41;7.88;;;3.30;;
28343;SDS011;15597;50.914;6.638;2023-07-02T01:32:10;6.78;;;2.45;;
28343;SDS011;15597;50.914;6.638;2023-07-02T01:34:36;5.63;;;2.28;;
28343;SDS011;15597;50.914;6.638;2023-07-02T01:37:02;7.57;;;2.80;;
28343;SDS011;15597;50.914;6.638;2023-07-02T01:39:29;8.10;;;3.65;;
28343;SDS011;15597;50.914;6.638;2023-07-02T01:41:55;8.23;;;3.25;;
28343;SDS011;15597;50.914;6.638;2023-07-02T01:44:34;10.13;;;3.53;;
28343;SDS011;15597;50.914;6.638;2023-07-02T01:46:59;7.00;;;2.92;;
28343;SDS011;15597;50.914;6.638;2023-07-02T01:49:25;7.22;;;2.65;;
28343;SDS011;15597;50.914;6.638;2023-07-02T01:51:54;7.30;;;3.40;;
28343;SDS011;15597;50.914;6.638;2023-07-02T01:54:22;6.90;;;2.40;;
28343;SDS011;15597;50.914;6.638;2023-07-02T01:56:49;8.30;;;3.50;;
28343;SDS011;15597;50.914;6.638;2023-07-02T01:59:15;8.45;;;3.17;;
28343;SDS011;15597;50.914;6.638;2023-07-02T02:01:42;8.30;;;3.15;;
28343;SDS011;15597;50.914;6.638;2023-07-02T02:04:08;8.48;;;3.10;;
28343;SDS011;15597;50.914;6.638;2023-07-02T02:06:34;7.07;;;2.65;;
28343;SDS011;15597;50.914;6.638;2023-07-02T02:09:01;11.32;;;3.45;;
28343;SDS011;15597;50.914;6.638;2023-07-02T02:11:32;8.65;;;3.65;;
28343;SDS011;15597;50.914;6.638;2023-07-02T02:13:59;12.25;;;4.97;;
28343;SDS011;15597;50.914;6.638;2023-07-02T02:16:28;10.10;;;3.78;;
28343;SDS011;15597;50.914;6.638;2023-07-02T02:18:54;5.88;;;2.90;;
28343;SDS011;15597;50.914;6.638;2023-07-02T02:21:20;10.98;;;4.00;;
28343;SDS011;15597;50.914;6.638;2023-07-02T02:23:47;7.13;;;3.22;;
28343;SDS011;15597;50.914;6.638;2023-07-02T02:26:13;8.45;;;4.00;;
28343;SDS011;15597;50.914;6.638;2023-07-02T02:28:39;11.77;;;4.40;;
28343;SDS011;15597;50.914;6.638;2023-07-02T02:31:05;7.95;;;3.60;;
28343;SDS011;15597;50.914;6.638;2023-07-02T02:33:31;8.95;;;3.78;;
28343;SDS011;15597;50.914;6.638;2023-07-02T02:35:57;9.52;;;4.90;;
28343;SDS011;15597;50.914;6.638;2023-07-02T02:38:23;11.98;;;4.63;;
28343;SDS011;15597;50.914;6.638;2023-07-02T02:40:48;8.27;;;3.92;;
28343;SDS011;15597;50.914;6.638;2023-07-02T02:43:17;10.45;;;3.70;;
28343;SDS011;15597;50.914;6.638;2023-07-02T02:45:44;8.38;;;4.05;;
28343;SDS011;15597;50.914;6.638;2023-07-02T02:48:10;9.10;;;4.40;;
28343;SDS011;15597;50.914;6.638;2023-07-02T02:50:36;10.02;;;4.90;;
28343;SDS011;15597;50.914;6.638;2023-07-02T02:53:07;8.63;;;4.47;;
28343;SDS011;15597;50.914;6.638;2023-07-02T02:55:32;7.38;;;3.50;;
28343;SDS011;15597;50.914;6.638;2023-07-02T02:57:58;10.30;;;4.28;;
28343;SDS011;15597;50.914;6.638;2023-07-02T03:00:24;10.10;;;4.40;;
28343;SDS011;15597;50.914;6.638;2023-07-02T03:02:50;10.93;;;4.30;;
28343;SDS011;15597;50.914;6.638;2023-07-02T03:05:15;10.93;;;4.35;;
28343;SDS011;15597;50.914;6.638;2023-07-02T03:07:41;12.63;;;5.18;;
28343;SDS011;15597;50.914;6.638;2023-07-02T03:10:07;11.55;;;4.75;;
28343;SDS011;15597;50.914;6.638;2023-07-02T03:12:34;12.25;;;5.32;;
28343;SDS011;15597;50.914;6.638;2023-07-02T03:14:59;11.98;;;4.80;;
28343;SDS011;15597;50.914;6.638;2023-07-02T03:17:25;11.20;;;4.28;;
28343;SDS011;15597;50.914;6.638;2023-07-02T03:19:51;11.77;;;5.32;;
28343;SDS011;15597;50.914;6.638;2023-07-02T03:22:16;12.45;;;5.80;;
28343;SDS011;15597;50.914;6.638;2023-07-02T03:24:42;11.43;;;4.97;;
28343;SDS011;15597;50.914;6.638;2023-07-02T03:27:07;16.42;;;6.95;;
28343;SDS011;15597;50.914;6.638;2023-07-02T03:29:34;12.18;;;5.38;;
28343;SDS011;15597;50.914;6.638;2023-07-02T03:32:00;11.95;;;5.55;;
28343;SDS011;15597;50.914;6.638;2023-07-02T03:34:26;16.73;;;6.93;;
28343;SDS011;15597;50.914;6.638;2023-07-02T03:36:51;12.93;;;5.95;;
28343;SDS011;15597;50.914;6.638;2023-07-02T03:39:17;13.93;;;5.68;;
28343;SDS011;15597;50.914;6.638;2023-07-02T03:41:43;14.35;;;6.70;;
28343;SDS011;15597;50.914;6.638;2023-07-02T03:44:09;11.93;;;5.22;;
28343;SDS011;15597;50.914;6.638;2023-07-02T03:46:34;15.00;;;6.72;;
28343;SDS011;15597;50.914;6.638;2023-07-02T03:49:00;12.40;;;5.88;;
28343;SDS011;15597;50.914;6.638;2023-07-02T03:51:28;9.95;;;5.13;;
28343;SDS011;15597;50.914;6.638;2023-07-02T03:53:53;19.05;;;7.78;;
28343;SDS011;15597;50.914;6.638;2023-07-02T03:56:19;13.35;;;6.03;;
28343;SDS011;15597;50.914;6.638;2023-07-02T03:58:45;16.90;;;6.63;;
28343;SDS011;15597;50.914;6.638;2023-07-02T04:01:10;12.20;;;6.00;;
28343;SDS011;15597;50.914;6.638;2023-07-02T04:03:36;12.30;;;5.20;;
28343;SDS011;15597;50.914;6.638;2023-07-02T04:06:02;13.32;;;6.47;;
28343;SDS011;15597;50.914;6.638;2023-07-02T04:08:27;11.95;;;5.25;;
28343;SDS011;15597;50.914;6.638;2023-07-02T04:10:53;14.30;;;6.10;;
28343;SDS011;15597;50.914;6.638;2023-07-02T04:13:19;12.20;;;6.68;;
28343;SDS011;15597;50.914;6.638;2023-07-02T04:15:45;14.07;;;6.03;;
28343;SDS011;15597;50.914;6.638;2023-07-02T04:18:11;16.90;;;7.78;;
28343;SDS011;15597;50.914;6.638;2023-07-02T04:20:36;17.15;;;7.57;;
28343;SDS011;15597;50.914;6.638;2023-07-02T04:23:04;17.73;;;7.68;;
28343;SDS011;15597;50.914;6.638;2023-07-02T04:25:30;12.23;;;5.35;;
28343;SDS011;15597;50.914;6.638;2023-07-02T04:27:55;13.40;;;6.57;;
28343;SDS011;15597;50.914;6.638;2023-07-02T04:30:21;15.82;;;7.28;;
28343;SDS011;15597;50.914;6.638;2023-07-02T04:32:47;16.98;;;6.43;;
28343;SDS011;15597;50.914;6.638;2023-07-02T04:35:13;19.33;;;7.68;;
28343;SDS011;15597;50.914;6.638;2023-07-02T04:37:38;12.50;;;5.90;;
28343;SDS011;15597;50.914;6.638;2023-07-02T04:40:04;16.48;;;6.72;;
28343;SDS011;15597;50.914;6.638;2023-07-02T04:42:34;21.20;;;9.23;;
28343;SDS011;15597;50.914;6.638;2023-07-02T04:45:05;16.77;;;7.80;;
28343;SDS011;15597;50.914;6.638;2023-07-02T04:47:32;20.70;;;8.63;;
28343;SDS011;15597;50.914;6.638;2023-07-02T04:49:58;16.75;;;6.97;;
28343;SDS011;15597;50.914;6.638;2023-07-02T04:52:24;15.02;;;6.15;;
28343;SDS011;15597;50.914;6.638;2023-07-02T04:54:49;19.88;;;8.63;;
28343;SDS011;15597;50.914;6.638;2023-07-02T04:57:15;20.00;;;8.38;;
28343;SDS011;15597;50.914;6.638;2023-07-02T04:59:41;17.30;;;7.57;;
28343;SDS011;15597;50.914;6.638;2023-07-02T05:02:07;24.13;;;10.60;;
28343;SDS011;15597;50.914;6.638;2023-07-02T05:04:32;13.30;;;6.75;;
28343;SDS011;15597;50.914;6.638;2023-07-02T05:06:59;16.30;;;7.38;;
28343;SDS011;15597;50.914;6.638;2023-07-02T05:09:25;16.75;;;7.15;;
28343;SDS011;15597;50.914;6.638;2023-07-02T05:11:50;16.95;;;8.80;;
28343;SDS011;15597;50.914;6.638;2023-07-02T05:14:16;16.90;;;7.53;;
28343;SDS011;15597;50.914;6.638;2023-07-02T05:16:41;19.15;;;9.25;;
28343;SDS011;15597;50.914;6.638;2023-07-02T05:19:07;15.65;;;7.45;;
28343;SDS011;15597;50.914;6.638;2023-07-02T05:21:33;17.17;;;7.55;;
28343;SDS011;15597;50.914;6.638;2023-07-02T05:23:58;20.02;;;8.13;;
28343;SDS011;15597;50.914;6.638;2023-07-02T05:26:24;18.67;;;8.52;;
28343;SDS011;15597;50.914;6.638;2023-07-02T05:28:49;14.98;;;6.88;;
28343;SDS011;15597;50.914;6.638;2023-07-02T05:31:15;22.55;;;8.70;;
28343;SDS011;15597;50.914;6.638;2023-07-02T05:33:40;21.27;;;10.43;;
28343;SDS011;15597;50.914;6.638;2023-07-02T05:36:06;19.80;;;7.85;;
28343;SDS011;15597;50.914;6.638;2023-07-02T05:38:32;18.40;;;8.27;;
28343;SDS011;15597;50.914;6.638;2023-07-02T05:40:57;15.10;;;7.00;;
28343;SDS011;15597;50.914;6.638;2023-07-02T05:43:23;19.30;;;8.55;;
28343;SDS011;15597;50.914;6.638;2023-07-02T05:45:50;23.25;;;9.52;;
28343;SDS011;15597;50.914;6.638;2023-07-02T05:48:16;26.75;;;11.15;;
28343;SDS011;15597;50.914;6.638;2023-07-02T05:50:41;15.60;;;7.05;;
28343;SDS011;15597;50.914;6.638;2023-07-02T05:53:07;18.58;;;8.23;;
28343;SDS011;15597;50.914;6.638;2023-07-02T05:55:34;24.17;;;9.95;;
28343;SDS011;15597;50.914;6.638;2023-07-02T05:57:59;26.08;;;10.85;;
28343;SDS011;15597;50.914;6.638;2023-07-02T06:00:27;18.33;;;7.88;;
28343;SDS011;15597;50.914;6.638;2023-07-02T06:02:52;14.15;;;6.85;;
28343;SDS011;15597;50.914;6.638;2023-07-02T06:05:18;19.02;;;8.57;;
28343;SDS011;15597;50.914;6.638;2023-07-02T06:07:43;24.10;;;11.10;;
28343;SDS011;15597;50.914;6.638;2023-07-02T06:10:09;16.10;;;7.57;;
28343;SDS011;15597;50.914;6.638;2023-07-02T06:12:35;20.63;;;8.73;;
28343;SDS011;15597;50.914;6.638;2023-07-02T06:15:00;21.35;;;9.93;;
28343;SDS011;15597;50.914;6.638;2023-07-02T06:17:26;17.02;;;7.57;;
28343;SDS011;15597;50.914;6.638;2023-07-02T06:19:51;18.55;;;7.32;;
28343;SDS011;15597;50.914;6.638;2023-07-02T06:22:17;16.48;;;7.65;;
28343;SDS011;15597;50.914;6.638;2023-07-02T06:24:42;25.02;;;9.35;;
28343;SDS011;15597;50.914;6.638;2023-07-02T06:27:08;16.13;;;7.63;;
28343;SDS011;15597;50.914;6.638;2023-07-02T06:29:33;20.10;;;10.20;;
28343;SDS011;15597;50.914;6.638;2023-07-02T06:31:59;22.90;;;10.70;;
28343;SDS011;15597;50.914;6.638;2023-07-02T06:34:24;16.50;;;7.72;;
28343;SDS011;15597;50.914;6.638;2023-07-02T06:36:50;23.92;;;11.05;;
28343;SDS011;15597;50.914;6.638;2023-07-02T06:39:15;26.27;;;11.23;;
28343;SDS011;15597;50.914;6.638;2023-07-02T06:41:41;25.52;;;10.93;;
28343;SDS011;15597;50.914;6.638;2023-07-02T06:44:07;21.90;;;9.80;;
28343;SDS011;15597;50.914;6.638;2023-07-02T06:46:32;22.70;;;10.40;;
28343;SDS011;15597;50.914;6.638;2023-07-02T06:48:58;17.35;;;8.38;;
28343;SDS011;15597;50.914;6.638;2023-07-02T06:51:23;23.00;;;10.20;;
28343;SDS011;15597;50.914;6.638;2023-07-02T06:53:51;17.20;;;8.55;;
28343;SDS011;15597;50.914;6.638;2023-07-02T06:56:16;15.27;;;7.45;;
28343;SDS011;15597;50.914;6.638;2023-07-02T06:58:42;17.27;;;7.90;;
28343;SDS011;15597;50.914;6.638;2023-07-02T07:01:08;16.90;;;7.93;;
28343;SDS011;15597;50.914;6.638;2023-07-02T07:03:34;18.73;;;9.13;;
28343;SDS011;15597;50.914;6.638;2023-07-02T07:06:00;23.98;;;10.40;;
28343;SDS011;15597;50.914;6.638;2023-07-02T07:08:26;22.58;;;9.18;;
28343;SDS011;15597;50.914;6.638;2023-07-02T07:10:52;23.88;;;9.98;;
28343;SDS011;15597;50.914;6.638;2023-07-02T07:13:18;22.50;;;9.73;;
28343;SDS011;15597;50.914;6.638;2023-07-02T07:15:43;20.05;;;8.85;;
28343;SDS011;15597;50.914;6.638;2023-07-02T07:18:09;21.08;;;9.30;;
28343;SDS011;15597;50.914;6.638;2023-07-02T07:20:35;19.80;;;8.98;;
28343;SDS011;15597;50.914;6.638;2023-07-02T07:23:04;22.52;;;9.73;;
28343;SDS011;15597;50.914;6.638;2023-07-02T07:25:30;19.63;;;9.20;;
28343;SDS011;15597;50.914;6.638;2023-07-02T07:27:55;22.05;;;9.10;;
28343;SDS011;15597;50.914;6.638;2023-07-02T07:30:21;22.45;;;9.50;;
28343;SDS011;15597;50.914;6.638;2023-07-02T07:32:50;21.58;;;9.27;;
28343;SDS011;15597;50.914;6.638;2023-07-02T07:35:16;21.08;;;10.00;;
28343;SDS011;15597;50.914;6.638;2023-07-02T07:37:42;20.08;;;9.45;;
28343;SDS011;15597;50.914;6.638;2023-07-02T07:40:08;21.70;;;8.68;;
28343;SDS011;15597;50.914;6.638;2023-07-02T07:42:34;20.92;;;9.05;;
28343;SDS011;15597;50.914;6.638;2023-07-02T07:45:00;22.02;;;10.50;;
28343;SDS011;15597;50.914;6.638;2023-07-02T07:47:27;21.75;;;8.95;;
28343;SDS011;15597;50.914;6.638;2023-07-02T07:49:52;18.27;;;7.97;;
28343;SDS011;15597;50.914;6.638;2023-07-02T07:52:18;17.23;;;7.70;;
28343;SDS011;15597;50.914;6.638;2023-07-02T07:54:44;19.90;;;8.35;;
28343;SDS011;15597;50.914;6.638;2023-07-02T07:57:09;22.13;;;9.85;;
28343;SDS011;15597;50.914;6.638;2023-07-02T07:59:35;18.25;;;8.50;;
28343;SDS011;15597;50.914;6.638;2023-07-02T08:02:00;23.67;;;10.10;;
28343;SDS011;15597;50.914;6.638;2023-07-02T08:04:26;17.17;;;8.32;;
28343;SDS011;15597;50.914;6.638;2023-07-02T08:06:51;21.45;;;8.73;;
28343;SDS011;15597;50.914;6.638;2023-07-02T08:09:17;18.27;;;9.35;;
28343;SDS011;15597;50.914;6.638;2023-07-02T08:11:42;20.77;;;9.32;;
28343;SDS011;15597;50.914;6.638;2023-07-02T08:14:08;17.55;;;8.50;;
28343;SDS011;15597;50.914;6.638;2023-07-02T08:16:34;16.83;;;8.57;;
28343;SDS011;15597;50.914;6.638;2023-07-02T08:18:59;22.33;;;9.23;;
28343;SDS011;15597;50.914;6.638;2023-07-02T08:21:26;20.70;;;9.07;;
28343;SDS011;15597;50.914;6.638;2023-07-02T08:23:51;16.35;;;7.97;;
28343;SDS011;15597;50.914;6.638;2023-07-02T08:26:17;22.30;;;9.52;;
28343;SDS011;15597;50.914;6.638;2023-07-02T08:28:42;23.30;;;10.23;;
28343;SDS011;15597;50.914;6.638;2023-07-02T08:31:08;19.35;;;8.73;;
28343;SDS011;15597;50.914;6.638;2023-07-02T08:33:33;17.17;;;8.30;;
28343;SDS011;15597;50.914;6.638;2023-07-02T08:35:59;17.60;;;8.25;;
28343;SDS011;15597;50.914;6.638;2023-07-02T08:38:26;20.13;;;9.00;;
28343;SDS011;15597;50.914;6.638;2023-07-02T08:40:51;18.33;;;8.30;;
28343;SDS011;15597;50.914;6.638;2023-07-02T08:43:17;22.63;;;9.10;;
28343;SDS011;15597;50.914;6.638;2023-07-02T08:45:43;22.45;;;8.85;;
28343;SDS011;15597;50.914;6.638;2023-07-02T08:48:08;19.13;;;8.18;;
28343;SDS011;15597;50.914;6.638;2023-07-02T08:50:36;19.42;;;8.77;;
28343;SDS011;15597;50.914;6.638;2023-07-02T08:53:02;19.92;;;9.25;;
28343;SDS011;15597;50.914;6.638;2023-07-02T08:55:27;19.70;;;8.68;;
28343;SDS011;15597;50.914;6.638;2023-07-02T08:57:55;24.00;;;10.30;;
28343;SDS011;15597;50.914;6.638;2023-07-02T09:00:28;21.48;;;9.85;;
28343;SDS011;15597;50.914;6.638;2023-07-02T09:02:56;28.25;;;11.18;;
28343;SDS011;15597;50.914;6.638;2023-07-02T09:05:22;23.20;;;8.98;;
28343;SDS011;15597;50.914;6.638;2023-07-02T09:07:48;20.88;;;9.60;;
28343;SDS011;15597;50.914;6.638;2023-07-02T09:10:30;20.95;;;9.10;;
28343;SDS011;15597;50.914;6.638;2023-07-02T09:13:03;20.75;;;8.65;;
28343;SDS011;15597;50.914;6.638;2023-07-02T09:15:34;20.50;;;9.63;;
28343;SDS011;15597;50.914;6.638;2023-07-02T09:18:01;19.55;;;8.40;;
28343;SDS011;15597;50.914;6.638;2023-07-02T09:20:32;19.25;;;9.13;;
28343;SDS011;15597;50.914;6.638;2023-07-02T09:22:58;21.70;;;9.30;;
28343;SDS011;15597;50.914;6.638;2023-07-02T09:25:33;21.38;;;9.85;;
28343;SDS011;15597;50.914;6.638;2023-07-02T09:27:59;23.63;;;9.48;;
28343;SDS011;15597;50.914;6.638;2023-07-02T09:30:25;16.30;;;8.02;;
28343;SDS011;15597;50.914;6.638;2023-07-02T09:32:50;18.42;;;8.88;;
28343;SDS011;15597;50.914;6.638;2023-07-02T09:35:16;17.42;;;9.07;;
28343;SDS011;15597;50.914;6.638;2023-07-02T09:37:42;21.88;;;9.75;;
28343;SDS011;15597;50.914;6.638;2023-07-02T09:40:08;18.33;;;8.68;;
28343;SDS011;15597;50.914;6.638;2023-07-02T09:42:34;19.20;;;9.02;;
28343;SDS011;15597;50.914;6.638;2023-07-02T09:45:01;17.25;;;8.30;;
28343;SDS011;15597;50.914;6.638;2023-07-02T09:47:27;19.45;;;9.07;;
28343;SDS011;15597;50.914;6.638;2023-07-02T09:49:55;20.55;;;9.07;;
28343;SDS011;15597;50.914;6.638;2023-07-02T09:52:24;22.17;;;9.52;;
28343;SDS011;15597;50.914;6.638;2023-07-02T09:54:52;19.23;;;8.68;;
28343;SDS011;15597;50.914;6.638;2023-07-02T09:57:18;21.13;;;8.52;;
28343;SDS011;15597;50.914;6.638;2023-07-02T09:59:43;15.90;;;7.30;;
28343;SDS011;15597;50.914;6.638;2023-07-02T10:02:09;18.50;;;9.35;;
28343;SDS011;15597;50.914;6.638;2023-07-02T10:07:08;16.20;;;8.70;;
28343;SDS011;15597;50.914;6.638;2023-07-02T10:12:01;16.13;;;8.13;;
28343;SDS011;15597;50.914;6.638;2023-07-02T10:14:37;20.92;;;8.73;;
28343;SDS011;15597;50.914;6.638;2023-07-02T10:17:06;19.85;;;9.10;;
28343;SDS011;15597;50.914;6.638;2023-07-02T10:19:31;19.05;;;7.93;;
28343;SDS011;15597;50.914;6.638;2023-07-02T10:22:03;18.20;;;8.07;;
28343;SDS011;15597;50.914;6.638;2023-07-02T10:24:30;13.98;;;7.03;;
28343;SDS011;15597;50.914;6.638;2023-07-02T10:26:56;18.27;;;8.02;;
28343;SDS011;15597;50.914;6.638;2023-07-02T10:29:23;18.05;;;8.95;;
28343;SDS011;15597;50.914;6.638;2023-07-02T10:31:53;20.15;;;9.25;;
28343;SDS011;15597;50.914;6.638;2023-07-02T10:34:30;16.58;;;8.35;;
28343;SDS011;15597;50.914;6.638;2023-07-02T10:36:57;17.10;;;7.93;;
28343;SDS011;15597;50.914;6.638;2023-07-02T10:39:23;19.20;;;8.27;;
28343;SDS011;15597;50.914;6.638;2023-07-02T10:41:49;19.38;;;8.85;;
28343;SDS011;15597;50.914;6.638;2023-07-02T10:44:14;18.33;;;9.02;;
28343;SDS011;15597;50.914;6.638;2023-07-02T10:46:44;19.45;;;8.63;;
28343;SDS011;15597;50.914;6.638;2023-07-02T10:49:11;17.02;;;8.70;;
28343;SDS011;15597;50.914;6.638;2023-07-02T10:51:37;19.17;;;8.43;;
28343;SDS011;15597;50.914;6.638;2023-07-02T10:54:03;18.00;;;8.98;;
28343;SDS011;15597;50.914;6.638;2023-07-02T10:56:30;17.42;;;8.43;;
28343;SDS011;15597;50.914;6.638;2023-07-02T10:58:57;18.48;;;9.05;;
28343;SDS011;15597;50.914;6.638;2023-07-02T11:01:26;17.50;;;8.93;;
28343;SDS011;15597;50.914;6.638;2023-07-02T11:04:00;18.85;;;8.63;;
28343;SDS011;15597;50.914;6.638;2023-07-02T11:08:53;17.00;;;7.18;;
28343;SDS011;15597;50.914;6.638;2023-07-02T11:11:20;21.75;;;8.80;;
28343;SDS011;15597;50.914;6.638;2023-07-02T11:13:47;18.17;;;8.70;;
28343;SDS011;15597;50.914;6.638;2023-07-02T11:19:07;15.13;;;7.70;;
28343;SDS011;15597;50.914;6.638;2023-07-02T11:21:34;18.20;;;7.43;;
28343;SDS011;15597;50.914;6.638;2023-07-02T11:24:01;16.63;;;8.43;;
28343;SDS011;15597;50.914;6.638;2023-07-02T11:29:03;16.45;;;7.97;;
28343;SDS011;15597;50.914;6.638;2023-07-02T11:31:28;16.08;;;7.65;;
28343;SDS011;15597;50.914;6.638;2023-07-02T11:33:54;21.45;;;8.73;;
28343;SDS011;15597;50.914;6.638;2023-07-02T11:36:23;17.00;;;7.50;;
28343;SDS011;15597;50.914;6.638;2023-07-02T11:38:54;16.73;;;7.40;;
28343;SDS011;15597;50.914;6.638;2023-07-02T11:41:20;15.75;;;7.63;;
28343;SDS011;15597;50.914;6.638;2023-07-02T11:43:46;17.25;;;7.45;;
28343;SDS011;15597;50.914;6.638;2023-07-02T11:46:12;15.93;;;7.40;;
28343;SDS011;15597;50.914;6.638;2023-07-02T11:48:38;17.60;;;8.02;;
28343;SDS011;15597;50.914;6.638;2023-07-02T11:51:04;19.25;;;7.50;;
28343;SDS011;15597;50.914;6.638;2023-07-02T11:53:29;15.98;;;6.95;;
28343;SDS011;15597;50.914;6.638;2023-07-02T11:55:55;15.70;;;7.22;;
28343;SDS011;15597;50.914;6.638;2023-07-02T11:58:20;17.48;;;7.20;;
28343;SDS011;15597;50.914;6.638;2023-07-02T12:00:46;14.95;;;6.78;;
28343;SDS011;15597;50.914;6.638;2023-07-02T12:03:11;16.73;;;7.47;;
28343;SDS011;15597;50.914;6.638;2023-07-02T12:05:37;20.30;;;7.80;;
28343;SDS011;15597;50.914;6.638;2023-07-02T12:08:03;22.45;;;7.72;;
28343;SDS011;15597;50.914;6.638;2023-07-02T12:10:29;15.60;;;7.25;;
28343;SDS011;15597;50.914;6.638;2023-07-02T12:12:54;14.40;;;7.03;;
28343;SDS011;15597;50.914;6.638;2023-07-02T12:15:20;19.77;;;8.38;;
28343;SDS011;15597;50.914;6.638;2023-07-02T12:17:45;15.60;;;6.93;;
28343;SDS011;15597;50.914;6.638;2023-07-02T12:20:11;15.07;;;7.43;;
28343;SDS011;15597;50.914;6.638;2023-07-02T12:22:37;15.10;;;6.70;;
28343;SDS011;15597;50.914;6.638;2023-07-02T12:25:02;15.48;;;6.50;;
28343;SDS011;15597;50.914;6.638;2023-07-02T12:27:28;15.43;;;6.85;;
28343;SDS011;15597;50.914;6.638;2023-07-02T12:29:55;14.20;;;6.50;;
28343;SDS011;15597;50.914;6.638;2023-07-02T12:32:21;14.95;;;7.20;;
28343;SDS011;15597;50.914;6.638;2023-07-02T12:34:46;15.68;;;6.97;;
28343;SDS011;15597;50.914;6.638;2023-07-02T12:37:12;13.93;;;6.97;;
28343;SDS011;15597;50.914;6.638;2023-07-02T12:39:42;16.67;;;7.60;;
28343;SDS011;15597;50.914;6.638;2023-07-02T12:42:08;14.65;;;7.25;;
28343;SDS011;15597;50.914;6.638;2023-07-02T12:44:33;15.20;;;6.68;;
28343;SDS011;15597;50.914;6.638;2023-07-02T12:46:59;15.10;;;6.55;;
28343;SDS011;15597;50.914;6.638;2023-07-02T12:49:24;17.52;;;7.40;;
28343;SDS011;15597;50.914;6.638;2023-07-02T12:51:50;14.90;;;6.90;;
28343;SDS011;15597;50.914;6.638;2023-07-02T12:54:15;17.05;;;7.75;;
28343;SDS011;15597;50.914;6.638;2023-07-02T12:56:41;15.07;;;7.07;;
28343;SDS011;15597;50.914;6.638;2023-07-02T12:59:07;14.32;;;6.93;;
28343;SDS011;15597;50.914;6.638;2023-07-02T13:01:33;17.35;;;6.90;;
28343;SDS011;15597;50.914;6.638;2023-07-02T13:03:58;14.82;;;7.13;;
28343;SDS011;15597;50.914;6.638;2023-07-02T13:06:24;17.02;;;7.15;;
28343;SDS011;15597;50.914;6.638;2023-07-02T13:08:50;19.30;;;7.55;;
28343;SDS011;15597;50.914;6.638;2023-07-02T13:11:16;13.48;;;6.57;;
28343;SDS011;15597;50.914;6.638;2023-07-02T13:13:41;14.02;;;6.80;;
28343;SDS011;15597;50.914;6.638;2023-07-02T13:16:07;14.68;;;7.13;;
28343;SDS011;15597;50.914;6.638;2023-07-02T13:18:32;13.98;;;6.93;;
28343;SDS011;15597;50.914;6.638;2023-07-02T13:20:58;16.17;;;7.40;;
28343;SDS011;15597;50.914;6.638;2023-07-02T13:23:23;16.95;;;7.03;;
28343;SDS011;15597;50.914;6.638;2023-07-02T13:25:49;16.23;;;7.10;;
28343;SDS011;15597;50.914;6.638;2023-07-02T13:28:14;17.60;;;7.30;;
28343;SDS011;15597;50.914;6.638;2023-07-02T13:30:40;18.10;;;7.28;;
28343;SDS011;15597;50.914;6.638;2023-07-02T13:33:05;16.88;;;7.32;;
28343;SDS011;15597;50.914;6.638;2023-07-02T13:35:31;18.38;;;7.18;;
28343;SDS011;15597;50.914;6.638;2023-07-02T13:37:56;18.90;;;7.68;;
28343;SDS011;15597;50.914;6.638;2023-07-02T13:40:24;16.35;;;7.00;;
28343;SDS011;15597;50.914;6.638;2023-07-02T13:42:50;15.98;;;7.38;;
28343;SDS011;15597;50.914;6.638;2023-07-02T13:45:16;16.90;;;7.88;;
28343;SDS011;15597;50.914;6.638;2023-07-02T13:47:41;15.75;;;7.60;;
28343;SDS011;15597;50.914;6.638;2023-07-02T13:50:07;15.50;;;6.85;;
28343;SDS011;15597;50.914;6.638;2023-07-02T13:52:33;15.43;;;7.05;;
28343;SDS011;15597;50.914;6.638;2023-07-02T13:54:59;18.65;;;7.72;;
28343;SDS011;15597;50.914;6.638;2023-07-02T13:57:24;14.10;;;7.30;;
28343;SDS011;15597;50.914;6.638;2023-07-02T13:59:50;14.07;;;7.05;;
28343;SDS011;15597;50.914;6.638;2023-07-02T14:02:15;15.77;;;8.10;;
28343;SDS011;15597;50.914;6.638;2023-07-02T14:04:42;16.30;;;7.05;;
28343;SDS011;15597;50.914;6.638;2023-07-02T14:07:07;14.23;;;7.20;;
28343;SDS011;15597;50.914;6.638;2023-07-02T14:09:33;18.88;;;7.13;;
28343;SDS011;15597;50.914;6.638;2023-07-02T14:11:58;14.45;;;7.40;;
28343;SDS011;15597;50.914;6.638;2023-07-02T14:14:24;17.65;;;7.50;;
28343;SDS011;15597;50.914;6.638;2023-07-02T14:16:49;16.80;;;6.97;;
28343;SDS011;15597;50.914;6.638;2023-07-02T14:19:15;14.68;;;6.75;;
28343;SDS011;15597;50.914;6.638;2023-07-02T14:21:42;14.98;;;7.60;;
28343;SDS011;15597;50.914;6.638;2023-07-02T14:24:07;15.68;;;7.43;;
28343;SDS011;15597;50.914;6.638;2023-07-02T14:26:34;17.42;;;7.43;;
28343;SDS011;15597;50.914;6.638;2023-07-02T14:28:59;13.77;;;6.50;;
28343;SDS011;15597;50.914;6.638;2023-07-02T14:31:25;14.73;;;6.85;;
28343;SDS011;15597;50.914;6.638;2023-07-02T14:33:50;13.55;;;6.70;;
28343;SDS011;15597;50.914;6.638;2023-07-02T14:36:16;13.20;;;6.45;;
28343;SDS011;15597;50.914;6.638;2023-07-02T14:38:42;14.88;;;6.85;;
28343;SDS011;15597;50.914;6.638;2023-07-02T14:41:07;16.75;;;6.63;;
28343;SDS011;15597;50.914;6.638;2023-07-02T14:43:33;19.73;;;7.68;;